Clinton, OK

12:31 AM CDT die 23o August, anno 2014 (GMT -0500)
Clinton Municipal | Change Station
CLOSE
Current Station
Airport
Location: Clinton,
Elevation: 1614 ft
Nearby Weather Stations

Elev 1614 ft 35.54 °N, 98.93 °W | Updated 28 days ago

Clear
81 °F
Feels Like 81 °F
N
14
Ventus Variabilis Ventus from Auster
Gusts 19 mph

Hodie
High -- | Low -- °F
--% Chance of Precip.
Yesterday
High -- | Low -- °F
Precip. -- in
7:01 AM 8:14 PM
Waning Crescent, 5% visible
Pressio 29.99 in
Visibilitas 10.0 milia passuum
Clouds Serena
Index Caloris 81 °F
Frigus in quo Ros apparet 57 °F
Umor 42%
Rainfall 0.00 in
Snow Depth Not available.
UV 8 out of 12
Pollen 9.90 out of 12
Air Quality Not available.
Flu Activity Not available.
METAR KCLK 251610Z AUTO 23016G21KT 10SM CLR 32/15 A2999 RMK AO2

More Conditions Fewer Conditions

Pressio 29.99 in
Visibilitas 10.0 milia passuum
Clouds Serena
Index Caloris 81 °F
Frigus in quo Ros apparet 57 °F
Umor 42%
Rainfall 0.00 in
Snow Depth Not available.
UV 8 out of 12
Pollen 9.90 out of 12
Air Quality Not available.
Flu Activity Not available.
METAR KCLK 251610Z AUTO 23016G21KT 10SM CLR 32/15 A2999 RMK AO2

More Conditions Fewer Conditions

10-Day Weather Forecast

Almanac

Astronomy

Aug. 23, 2014 Rise Set
Actual Time 7:01 AM CDT 8:14 PM CDT
Civil Twilight 6:34 AM CDT 8:41 PM CDT
Nautical Twilight 6:02 AM CDT 9:12 PM CDT
Astronomical Twilight 5:30 AM CDT 9:45 PM CDT
Moon 5:20 AM CDT 7:00 PM CDT
Length Of Visible Light 14h 06m
Length of Day
13h 13m
Tomorrow will be 2m 4s shorter.
Waning Crescent, 5% of the Moon is Illuminated
Hodie
Waning Crescent
Aug 25
New
Sep 2
First Quarter
Sep 8
Full
Sep 15
Last Quarter

Today's Extremes

State Highs State Lows

Community

WunderPhotos

Upload Photos

1,746,371 photos uploaded!

WunderBlogs® & News

By Dr. Jeff Masters
Director of Meteorology, Weather Underground
By Kari Strenfel
Meteorologist, Weather Underground
By Christopher C. Burt
Weather Historian, Weather Underground
August 23, 2014
August 23, 2014
August 22, 2014

Nearby

Snow Depth

Station Depth Elevation
No new snow has been reported.

Earthquake Activity

City Distance Mag. Time & Date
Cherokee, Oklahoma 97 milia passuum 3.8 8:25 PM CDT
2014-08-17
Medford, Oklahoma 108 milia passuum 2.9 6:30 PM CDT
2014-08-17
Cherokee, Oklahoma 89 milia passuum 2.6 11:50 AM CDT
2014-08-17
Medford, Oklahoma 108 milia passuum 3.1 11:35 AM CDT
2014-08-17
Minimum magnitude displayed is 2.5.

Coastal Water Temperatures

Locus Calor
No Stations Reporting

Nearby Weather Stations